Saga Sapphire — 9HOF8 — position and weather

sailwx.info

Track history (hours):
 
Tides and Currents Weather Stations Pressure Air Temp Water Temp Dewpoint Dewpoint Depression Visibility Wind Speed Wind Dir Waves Ship Positions

Saga Sapphire

Last reported at 2017-Aug-17 00:58 UTC. Time now 2017-Aug-17 01:55 UTC.
Position N 50°30' E 000°55'.

Length 200 m; draft 8.5 m.

Type: Ship. MMSI: 256208000.

Date/timePositionNaut miles runAvg speedWind from/ knotsBaromVisibWave heightAir tempDewpointWater temp
2017-Aug-17 00:58N 50°30' E 000°55'4 8.5
2017-Aug-17 00:28N 50°29' E 000°48'4 8.3
2017-Aug-17 00:00N 50°28' E 000°43'9 7.0
2017-Aug-16 22:43N 50°26' E 000°29'3 6.6
2017-Aug-16 22:18N 50°25' E 000°25'2 6.6
2017-Aug-16 21:59N 50°24' E 000°21'3 6.6
2017-Aug-16 21:30N 50°23' E 000°17'3 6.5
2017-Aug-16 20:58N 50°22' E 000°12'3 6.6
2017-Aug-16 20:31N 50°22' E 000°07'3 6.7
2017-Aug-16 20:00N 50°21' E 000°02'3 6.8
2017-Aug-16 19:30N 50°20' W 000°03'3 7.0
2017-Aug-16 19:01N 50°19' W 000°09'4 7.1
2017-Aug-16 18:31N 50°18' W 000°14'4 7.3
2017-Aug-16 18:01N 50°17' W 000°19'4 7.7
2017-Aug-16 17:31N 50°16' W 000°25'4 8.2
2017-Aug-16 17:01N 50°15' W 000°31'4 8.6
2017-Aug-16 16:30N 50°14' W 000°38'510.6
2017-Aug-16 16:00N 50°13' W 000°46'611.6
2017-Aug-16 15:30N 50°11' W 000°55'612.0
2017-Aug-16 15:00N 50°10' W 001°04'612.3
2017-Aug-16 14:30N 50°08' W 001°13'612.4
2017-Aug-16 14:01N 50°07' W 001°23'612.4
2017-Aug-16 13:30N 50°06' W 001°32'612.3
2017-Aug-16 13:01N 50°04' W 001°41'612.0
2017-Aug-16 12:30N 50°02' W 001°50'611.5
2017-Aug-16 12:00N 50°00' W 001°59'610.9
2017-Aug-16 11:28N 49°58' W 002°07'510.3
2017-Aug-16 11:00N 49°56' W 002°14'5 9.8
2017-Aug-16 10:30N 49°54' W 002°21'5 9.4
2017-Aug-16 10:00N 49°52' W 002°27'5 9.1
2017-Aug-16 09:29N 49°51' W 002°34'4 8.7
2017-Aug-16 09:00N 49°49' W 002°40'5 9.9
2017-Aug-16 08:30N 49°48' W 002°48'1115.0
2017-Aug-16 07:47N 49°43' W 003°03'1015.3
2017-Aug-16 07:09N 49°38' W 003°15'214.7
2017-Aug-16 07:00N 49°37' W 003°18'3311.7
2017-Aug-16 04:13N 49°17' W 003°58'1711.8
2017-Aug-16 02:49N 49°07' W 004°18'1512.0
2017-Aug-16 01:36N 48°59' W 004°36'112.1
2017-Aug-16 01:30N 48°58' W 004°38'612.1
2017-Aug-16 01:00N 48°54' W 004°45'612.4
2017-Aug-16 00:30N 48°50' W 004°52'612.4
2017-Aug-16 00:00N 48°46' W 004°59'713.1
2017-Aug-15 23:30N 48°42' W 005°07'713.0
2017-Aug-15 23:00N 48°38' W 005°15'713.1
2017-Aug-15 22:30N 48°33' W 005°21'611.4
2017-Aug-15 22:00N 48°28' W 005°24'712.9
2017-Aug-15 21:30N 48°22' W 005°19'612.7
2017-Aug-15 21:00N 48°17' W 005°12'611.9
2017-Aug-15 20:31N 48°16' W 005°04'612.2
2017-Aug-15 20:00N 48°16' W 004°55'612.0
2017-Aug-15 19:31N 48°17' W 004°46'611.2
2017-Aug-15 19:01N 48°19' W 004°38'4 8.7
2017-Aug-15 18:31N 48°21' W 004°32'4 7.4
2017-Aug-15 18:00N 48°23' W 004°27'0 0.0
2017-Aug-15 17:30N 48°23' W 004°27'0 0.0
2017-Aug-15 16:59N 48°23' W 004°27'0 0.0
2017-Aug-15 16:29N 48°23' W 004°27'0 0.0
2017-Aug-15 15:59N 48°23' W 004°27'0 0.0
2017-Aug-15 15:29N 48°23' W 004°27'0 0.0
2017-Aug-15 14:59N 48°23' W 004°27'0 0.0
2017-Aug-15 14:29N 48°23' W 004°27'0 0.0
2017-Aug-15 13:59N 48°23' W 004°27'0 0.0
2017-Aug-15 13:28N 48°23' W 004°27'0 0.0
2017-Aug-15 12:58N 48°23' W 004°27'0 0.0
2017-Aug-15 12:30N 48°23' W 004°27'0 0.0
2017-Aug-15 12:00N 48°23' W 004°27'0 0.0
2017-Aug-15 11:29N 48°23' W 004°27'0 0.0
2017-Aug-15 10:58N 48°23' W 004°27'0 0.0
2017-Aug-15 10:29N 48°23' W 004°27'0 0.0
2017-Aug-15 09:59N 48°23' W 004°27'0 0.0
2017-Aug-15 09:28N 48°23' W 004°27'0 0.0
2017-Aug-15 08:58N 48°23' W 004°27'0 0.0
2017-Aug-15 08:28N 48°23' W 004°27'0 0.0
2017-Aug-15 07:58N 48°23' W 004°27'0 0.0
2017-Aug-15 07:30N 48°23' W 004°27'0 0.0
2017-Aug-15 07:00N 48°23' W 004°27'0 0.0
2017-Aug-15 06:31N 48°23' W 004°27'1 1.1
2017-Aug-15 06:01N 48°23' W 004°28'4 8.3
2017-Aug-15 05:30N 48°21' W 004°33'611.3
2017-Aug-15 05:00N 48°18' W 004°41'4 8.9
2017-Aug-15 04:30N 48°17' W 004°47'611.0
2017-Aug-15 04:00N 48°16' W 004°55'612.8
2017-Aug-15 03:30N 48°15' W 005°05'712.7
2017-Aug-15 02:55N 48°19' W 005°15'1114.1
2017-Aug-15 02:09N 48°28' W 005°24'314.1
2017-Aug-15 01:58N 48°30' W 005°25'715.0
2017-Aug-15 01:30N 48°35' W 005°18'715.0
2017-Aug-15 01:00N 48°41' W 005°10'815.3
2017-Aug-15 00:30N 48°45' W 005°01'1815.3
2017-Aug-14 23:19N 48°58' W 004°41'2414.1
2017-Aug-14 21:35N 49°15' W 004°14'113.7
2017-Aug-14 21:30N 49°15' W 004°12'713.8
2017-Aug-14 21:00N 49°20' W 004°05'713.3
2017-Aug-14 20:30N 49°25' W 003°58'714.1
2017-Aug-14 20:00N 49°29' W 003°49'714.7
2017-Aug-14 19:30N 49°34' W 003°41'815.3
2017-Aug-14 19:00N 49°39' W 003°32'815.9
2017-Aug-14 18:30N 49°44' W 003°23'816.3
2017-Aug-14 18:01N 49°49' W 003°13'816.5
2017-Aug-14 17:30N 49°55' W 003°04'816.3
2017-Aug-14 17:01N 49°59' W 002°52'816.6
2017-Aug-14 16:31N 50°01' W 002°40'816.2
2017-Aug-14 16:00N 50°03' W 002°28'714.4
2017-Aug-14 15:31N 50°02' W 002°17'714.9
2017-Aug-14 15:00N 49°58' W 002°07'714.3
2017-Aug-14 14:30N 49°53' W 001°59'713.8
2017-Aug-14 14:00N 49°49' W 001°51'612.9
2017-Aug-14 13:30N 49°44' W 001°44'510.1
2017-Aug-14 13:00N 49°40' W 001°39'2 3.4
2017-Aug-14 12:28N 49°39' W 001°37'0 0.0
2017-Aug-14 11:58N 49°39' W 001°37'0 0.0
2017-Aug-14 11:28N 49°39' W 001°37'0 0.0
2017-Aug-14 10:58N 49°39' W 001°37'0 0.0
2017-Aug-14 10:28N 49°39' W 001°37'0 0.0
2017-Aug-14 09:58N 49°39' W 001°37'0 0.0
2017-Aug-14 09:28N 49°39' W 001°37'0 0.0
2017-Aug-14 08:58N 49°39' W 001°37'0 0.0
2017-Aug-14 08:28N 49°39' W 001°37'0 0.0
2017-Aug-14 07:58N 49°39' W 001°37'0 0.0
2017-Aug-14 07:28N 49°39' W 001°37'0 0.0
2017-Aug-14 06:58N 49°39' W 001°37'0 0.0
2017-Aug-14 06:28N 49°39' W 001°37'0 0.0
2017-Aug-14 05:58N 49°39' W 001°37'0 0.7
2017-Aug-14 05:31N 49°39' W 001°37'2 4.5
2017-Aug-14 05:00N 49°41' W 001°40'4 8.2
2017-Aug-14 04:30N 49°44' W 001°43'3 5.5
2017-Aug-14 04:00N 49°46' W 001°46'3 7.0
2017-Aug-14 03:30N 49°48' W 001°50'4 8.3
2017-Aug-14 03:00N 49°53' W 001°50'4 7.6
2017-Aug-14 02:30N 49°54' W 001°56'5 9.8
2017-Aug-14 02:00N 49°53' W 002°04'1110.7
2017-Aug-14 00:58N 49°53' W 002°21'610.8
2017-Aug-14 00:24N 49°51' W 002°30'511.8
2017-Aug-14 00:00N 49°50' W 002°37'611.6
2017-Aug-13 23:27N 49°49' W 002°47'511.5
2017-Aug-13 23:00N 49°47' W 002°54'611.3
2017-Aug-13 22:30N 49°45' W 003°02'611.3
2017-Aug-13 22:00N 49°42' W 003°10'610.8
2017-Aug-13 21:30N 49°38' W 003°16'5 9.8
2017-Aug-13 21:00N 49°33' W 003°14'5 9.6
2017-Aug-13 20:30N 49°29' W 003°12'10 9.6
2017-Aug-13 19:29N 49°25' W 002°58'510.7
2017-Aug-13 19:00N 49°23' W 002°50'14 9.5
2017-Aug-13 17:31N 49°27' W 002°29'0 9.3
2017-Aug-13 17:30N 49°27' W 002°29'1 1.3
2017-Aug-13 16:30N 49°28' W 002°31'0 0.0
2017-Aug-13 14:10N 49°28' W 002°31'0 0.1
2017-Aug-13 14:00N 49°28' W 002°31'0 0.0
2017-Aug-13 13:27N 49°28' W 002°31'0 0.0
2017-Aug-13 12:59N 49°28' W 002°31'0 0.1
2017-Aug-13 06:39N 49°28' W 002°30'1 3.9
2017-Aug-13 06:30N 49°27' W 002°30'3 6.4
2017-Aug-13 05:59N 49°24' W 002°28'4 7.9
2017-Aug-13 05:26N 49°23' W 002°22'511.3
2017-Aug-13 04:59N 49°25' W 002°15'1613.4
2017-Aug-13 03:48N 49°40' W 002°06'816.2
2017-Aug-13 03:18N 49°48' W 002°03'415.6
2017-Aug-13 03:00N 49°50' W 001°57'714.9
2017-Aug-13 02:31N 49°53' W 001°46'714.3
2017-Aug-13 02:00N 49°56' W 001°36'714.0
2017-Aug-13 01:30N 50°00' W 001°28'713.0
2017-Aug-13 01:00N 50°04' W 001°20'612.7
2017-Aug-13 00:30N 50°07' W 001°11'612.1
2017-Aug-13 00:00N 50°10' W 001°03'2211.9
2017-Aug-12 22:07N 50°20' W 000°31'112.6
2017-Aug-12 22:01N 50°21' W 000°29'713.1
2017-Aug-12 21:30N 50°24' W 000°20'713.9
2017-Aug-12 20:58N 50°28' W 000°10'714.5
2017-Aug-12 20:31N 50°30' W 000°00'815.1
2017-Aug-12 20:01N 50°32' E 000°11'815.6
2017-Aug-12 19:31N 50°34' E 000°23'815.8
2017-Aug-12 19:01N 50°36' E 000°35'815.4
2017-Aug-12 18:31N 50°41' E 000°45'815.1
2017-Aug-12 18:01N 50°45' E 000°54'714.5
2017-Aug-12 17:31N 50°49' E 001°04'713.8
2017-Aug-12 17:00N 50°55' E 001°11'612.6
2017-Aug-12 16:30N 50°60' E 001°16'510.5
2017-Aug-12 15:59N 51°04' E 001°21'3 5.1
2017-Aug-12 15:29N 51°07' E 001°20'0 0.3
2017-Aug-12 14:18N 51°07' E 001°19'0 0.0
2017-Aug-12 12:55N 51°07' E 001°19'0 0.0
2017-Aug-12 11:11N 51°07' E 001°19'0 0.0
2017-Aug-12 10:47N 51°07' E 001°19'0 0.0
2017-Aug-12 10:30N 51°07' E 001°19'0 0.0
2017-Aug-12 09:44N 51°07' E 001°19'0 0.0
2017-Aug-12 09:22N 51°07' E 001°19'0 0.0
2017-Aug-12 08:58N 51°07' E 001°19'0 0.0
2017-Aug-12 08:28N 51°07' E 001°19'0 0.0
2017-Aug-12 07:46N 51°07' E 001°19'0 0.0
2017-Aug-12 07:21N 51°07' E 001°19'0 0.0
2017-Aug-12 06:56N 51°07' E 001°19'1 1.3
2017-Aug-12 06:26N 51°07' E 001°20'3 8.1
2017-Aug-12 06:00N 51°07' E 001°25'4 8.0
2017-Aug-12 05:31N 51°08' E 001°32'510.8
2017-Aug-12 05:01N 51°11' E 001°38'611.2
2017-Aug-12 04:31N 51°14' E 001°46'611.8
2017-Aug-12 04:01N 51°20' E 001°49'612.3
2017-Aug-12 03:31N 51°25' E 001°54'612.8
2017-Aug-12 03:00N 51°30' E 002°01'713.3
2017-Aug-12 02:31N 51°35' E 002°08'713.7
2017-Aug-12 02:00N 51°40' E 002°16'1313.9
2017-Aug-12 01:02N 51°50' E 002°30'114.0
2017-Aug-12 00:59N 51°51' E 002°30'6315.9
2017-Aug-11 21:00N 52°54' E 002°36'28 7.5 230 / 121014.310.8 17.015.3
2017-Aug-11 17:19N 53°21' E 002°24'8 9.4
2017-Aug-11 16:27N 53°26' E 002°14'66 8.8
2017-Aug-11 09:00N 54°12' E 000°54'1116.2 230 / 201016.427.0 17.010.516.0
2017-Aug-11 08:19N 54°22' E 000°46'310.7
2017-Aug-11 08:00N 54°24' E 000°42'510.7
2017-Aug-11 07:30N 54°28' E 000°36'510.8
2017-Aug-11 07:00N 54°32' E 000°29'511.0
2017-Aug-11 06:30N 54°36' E 000°23'511.0
2017-Aug-11 06:00N 54°39' E 000°15'510.9
2017-Aug-11 05:30N 54°43' E 000°08'510.9
2017-Aug-11 05:00N 54°47' E 000°02'510.8
2017-Aug-11 04:30N 54°51' W 000°05'910.6
2017-Aug-11 03:39N 54°58' W 000°15'210.4
2017-Aug-11 03:25N 54°60' W 000°18'410.3
2017-Aug-11 03:00N 55°03' W 000°23'510.1
2017-Aug-11 02:30N 55°07' W 000°29'5 9.9
2017-Aug-11 02:01N 55°10' W 000°34'5 9.8
2017-Aug-11 01:30N 55°14' W 000°40'5 9.7
2017-Aug-11 01:00N 55°17' W 000°46'5 9.7
2017-Aug-11 00:30N 55°21' W 000°52'5 9.5
2017-Aug-11 00:00N 55°24' W 000°58'5 9.4
2017-Aug-10 23:30N 55°28' W 001°03'5 9.2
2017-Aug-10 23:00N 55°31' W 001°08'4 8.8
2017-Aug-10 22:30N 55°35' W 001°13'4 8.8
2017-Aug-10 22:00N 55°38' W 001°18'4 9.0
2017-Aug-10 21:30N 55°42' W 001°23'5 9.3
2017-Aug-10 20:58N 55°45' W 001°30'4 9.6
2017-Aug-10 20:30N 55°48' W 001°36'5 9.7
2017-Aug-10 20:00N 55°51' W 001°42'5 9.9
2017-Aug-10 19:30N 55°55' W 001°48'5 9.7
2017-Aug-10 19:00N 55°58' W 001°54'510.0
2017-Aug-10 18:30N 56°02' W 002°00'510.3
2017-Aug-10 18:00N 56°05' W 002°07'510.3
2017-Aug-10 17:30N 56°06' W 002°16'510.3
2017-Aug-10 17:00N 56°06' W 002°25'5 9.9
2017-Aug-10 16:30N 56°06' W 002°34'5 9.9
2017-Aug-10 16:00N 56°06' W 002°43'5 9.6
2017-Aug-10 15:30N 56°05' W 002°52'5 9.2
2017-Aug-10 15:00N 56°03' W 002°59'5 9.7
2017-Aug-10 14:30N 56°01' W 003°07'3 5.6
2017-Aug-10 14:01N 55°59' W 003°11'0 0.3
2017-Aug-10 13:30N 55°59' W 003°11'0 0.4
2017-Aug-10 13:00N 55°59' W 003°11'0 0.6
2017-Aug-10 12:28N 55°59' W 003°11'0 0.0
2017-Aug-10 11:58N 55°59' W 003°11'0 0.0
2017-Aug-10 11:28N 55°59' W 003°11'0 0.0
2017-Aug-10 10:58N 55°59' W 003°11'0 0.0
2017-Aug-10 10:28N 55°59' W 003°11'0 0.0
2017-Aug-10 09:58N 55°59' W 003°11'0 0.0
2017-Aug-10 09:28N 55°59' W 003°11'0 0.0
2017-Aug-10 08:58N 55°59' W 003°11'0 0.0
2017-Aug-10 08:28N 55°59' W 003°11'0 0.0
2017-Aug-10 07:58N 55°59' W 003°11'0 0.0
2017-Aug-10 07:28N 55°59' W 003°11'0 0.0
2017-Aug-10 06:58N 55°59' W 003°11'0 0.0
2017-Aug-10 06:28N 55°59' W 003°11'0 0.0
2017-Aug-10 05:58N 55°59' W 003°11'0 0.0
2017-Aug-10 05:28N 55°59' W 003°11'0 0.0
2017-Aug-10 04:58N 55°59' W 003°11'0 0.0
2017-Aug-10 04:28N 55°59' W 003°11'0 0.0
2017-Aug-10 03:58N 55°59' W 003°11'0 0.0
2017-Aug-10 03:28N 55°59' W 003°11'0 0.0
2017-Aug-10 02:58N 55°59' W 003°11'0 0.0
2017-Aug-10 02:28N 55°59' W 003°11'0 0.0
2017-Aug-10 01:58N 55°59' W 003°11'0 0.0
2017-Aug-10 01:28N 55°59' W 003°11'0 0.0
2017-Aug-10 00:58N 55°59' W 003°11'0 0.0
2017-Aug-10 00:28N 55°59' W 003°11'0 0.0
2017-Aug-09 23:58N 55°59' W 003°11'0 0.0
2017-Aug-09 23:28N 55°59' W 003°11'0 0.0
2017-Aug-09 22:58N 55°59' W 003°11'0 0.0
2017-Aug-09 22:28N 55°59' W 003°11'0 0.0
2017-Aug-09 21:58N 55°59' W 003°11'0 0.0
2017-Aug-09 21:28N 55°59' W 003°11'0 0.0
2017-Aug-09 20:58N 55°59' W 003°11'0 0.0
2017-Aug-09 20:28N 55°59' W 003°11'0 0.0
2017-Aug-09 19:58N 55°59' W 003°11'0 0.0
2017-Aug-09 19:28N 55°59' W 003°11'0 0.0
2017-Aug-09 18:58N 55°59' W 003°11'0 0.0
2017-Aug-09 18:28N 55°59' W 003°11'0 0.0
2017-Aug-09 17:58N 55°59' W 003°11'0 0.0
2017-Aug-09 17:28N 55°59' W 003°11'0 0.0
2017-Aug-09 16:58N 55°59' W 003°11'0 0.0
2017-Aug-09 16:28N 55°59' W 003°11'0 0.0
2017-Aug-09 15:58N 55°59' W 003°11'0 0.0
2017-Aug-09 15:28N 55°59' W 003°11'0 0.0
2017-Aug-09 14:58N 55°59' W 003°11'0 0.0
2017-Aug-09 14:28N 55°59' W 003°11'0 0.0
2017-Aug-09 13:58N 55°59' W 003°11'0 0.0
2017-Aug-09 13:28N 55°59' W 003°11'0 0.0
2017-Aug-09 12:58N 55°59' W 003°11'0 0.0
2017-Aug-09 12:28N 55°59' W 003°11'0 0.0
2017-Aug-09 11:58N 55°59' W 003°11'0 0.0
2017-Aug-09 11:28N 55°59' W 003°11'0 0.0
2017-Aug-09 10:58N 55°59' W 003°11'0 0.0
2017-Aug-09 10:28N 55°59' W 003°11'0 0.0
2017-Aug-09 09:58N 55°59' W 003°11'0 0.0
2017-Aug-09 09:28N 55°59' W 003°11'0 0.0
2017-Aug-09 08:58N 55°59' W 003°11'0 0.0
2017-Aug-09 08:28N 55°59' W 003°11'0 0.0
2017-Aug-09 07:58N 55°59' W 003°11'0 0.0
2017-Aug-09 07:28N 55°59' W 003°11'0 0.0
2017-Aug-09 06:58N 55°59' W 003°11'0 0.0
2017-Aug-09 06:28N 55°59' W 003°11'0 0.0
2017-Aug-09 05:58N 55°59' W 003°11'0 0.0
2017-Aug-09 05:28N 55°59' W 003°11'0 0.0
2017-Aug-09 04:58N 55°59' W 003°11'0 0.0
2017-Aug-09 04:28N 55°59' W 003°11'0 0.0
2017-Aug-09 03:58N 55°59' W 003°11'0 0.0
2017-Aug-09 03:28N 55°59' W 003°11'0 0.0
2017-Aug-09 03:01N 55°59' W 003°11'0 0.7
2017-Aug-09 02:30N 55°59' W 003°11'0 0.1
2017-Aug-09 02:01N 55°59' W 003°11'1 1.3
2017-Aug-09 01:31N 55°60' W 003°11'3 5.6
2017-Aug-09 01:01N 56°01' W 003°07'5 9.4
2017-Aug-09 00:30N 56°03' W 002°60'4 9.0
2017-Aug-09 00:01N 56°07' W 002°54'611.2
2017-Aug-08 23:31N 56°08' W 002°44'612.7
2017-Aug-08 23:01N 56°08' W 002°33'612.4
2017-Aug-08 22:31N 56°09' W 002°22'612.4
2017-Aug-08 22:01N 56°10' W 002°11'510.7
2017-Aug-08 21:31N 56°10' W 002°01'5 9.2
2017-Aug-08 21:01N 56°14' W 001°59'5 9.1
2017-Aug-08 20:31N 56°19' W 001°56'4 8.9
2017-Aug-08 20:00N 56°23' W 001°57'4 8.8
2017-Aug-08 19:30N 56°27' W 001°58'5 9.1
2017-Aug-08 19:00N 56°29' W 002°06'5 9.1
2017-Aug-08 18:30N 56°30' W 002°14'5 9.3
2017-Aug-08 18:00N 56°30' W 002°22'5 9.2
2017-Aug-08 17:30N 56°29' W 002°30'4 8.2
2017-Aug-08 17:00N 56°28' W 002°37'5 9.1
2017-Aug-08 16:30N 56°27' W 002°46'5 8.8
2017-Aug-08 15:54N 56°28' W 002°55'1 0.7
2017-Aug-08 14:28N 56°28' W 002°57'0 0.0
2017-Aug-08 13:37N 56°28' W 002°57'0 0.0
2017-Aug-08 13:07N 56°28' W 002°57'0 0.0
2017-Aug-08 12:52N 56°28' W 002°57'0 0.0
2017-Aug-08 10:46N 56°28' W 002°57'0 0.0
2017-Aug-08 10:25N 56°28' W 002°57'0 0.0
2017-Aug-08 09:55N 56°28' W 002°57'0 0.0
2017-Aug-08 09:28N 56°28' W 002°57'0 0.0
2017-Aug-08 08:58N 56°28' W 002°57'0 0.0
2017-Aug-08 06:10N 56°28' W 002°57'0 0.0
2017-Aug-08 05:49N 56°28' W 002°57'0 0.0
2017-Aug-08 05:25N 56°28' W 002°57'0 0.0
2017-Aug-08 04:55N 56°28' W 002°57'0 0.0
2017-Aug-08 04:28N 56°28' W 002°57'0 0.0
2017-Aug-08 03:58N 56°28' W 002°57'0 0.0
2017-Aug-08 03:28N 56°28' W 002°57'0 0.2
2017-Aug-08 03:00N 56°28' W 002°57'3 3.9
2017-Aug-08 02:20N 56°27' W 002°52'410.7
2017-Aug-08 02:00N 56°27' W 002°46'5 9.8
2017-Aug-08 01:30N 56°28' W 002°37'5 9.1
2017-Aug-08 01:00N 56°30' W 002°29'612.0
2017-Aug-08 00:31N 56°32' W 002°19'612.7
2017-Aug-08 00:00N 56°34' W 002°09'713.3
2017-Aug-07 23:30N 56°38' W 001°58'611.1
2017-Aug-07 23:00N 56°42' W 001°51'9 9.7
2017-Aug-07 22:06N 56°50' W 001°46'1 9.6
2017-Aug-07 22:00N 56°51' W 001°46'5 9.4
2017-Aug-07 21:25N 56°56' W 001°42'4 9.7
2017-Aug-07 20:58N 57°00' W 001°39'5 9.4
2017-Aug-07 20:24N 57°05' W 001°36'4 9.2
2017-Aug-07 20:00N 57°09' W 001°34'4 8.8
2017-Aug-07 19:30N 57°13' W 001°31'12 7.4
2017-Aug-07 17:56N 57°24' W 001°35'4 8.6
2017-Aug-07 17:30N 57°27' W 001°40'4 7.4
2017-Aug-07 17:00N 57°30' W 001°45'1 1.5
2017-Aug-07 16:29N 57°30' W 001°46'0 0.0
2017-Aug-07 15:59N 57°30' W 001°46'0 0.0
2017-Aug-07 15:29N 57°30' W 001°46'0 0.0
2017-Aug-07 14:59N 57°30' W 001°46'0 0.0
2017-Aug-07 14:29N 57°30' W 001°46'0 0.0
2017-Aug-07 13:59N 57°30' W 001°46'0 0.0
2017-Aug-07 13:29N 57°30' W 001°46'0 0.0
2017-Aug-07 12:59N 57°30' W 001°46'0 0.0
2017-Aug-07 12:29N 57°30' W 001°46'0 0.0
2017-Aug-07 11:59N 57°30' W 001°46'0 0.0
2017-Aug-07 11:29N 57°30' W 001°46'0 0.0
2017-Aug-07 10:59N 57°30' W 001°46'0 0.0
2017-Aug-07 10:29N 57°30' W 001°46'0 0.0
2017-Aug-07 09:59N 57°30' W 001°46'0 0.0
2017-Aug-07 09:26N 57°30' W 001°46'0 0.0
2017-Aug-07 08:59N 57°30' W 001°46'0 0.0
2017-Aug-07 08:29N 57°30' W 001°46'0 0.0
2017-Aug-07 07:59N 57°30' W 001°46'0 0.0
2017-Aug-07 07:29N 57°30' W 001°46'0 0.0
2017-Aug-07 06:59N 57°30' W 001°46'0 0.0
2017-Aug-07 06:29N 57°30' W 001°46'0 0.0
2017-Aug-07 05:59N 57°30' W 001°46'0 0.3
2017-Aug-07 05:30N 57°30' W 001°46'3 6.4
2017-Aug-07 05:01N 57°28' W 001°41'3 6.6
2017-Aug-07 04:31N 57°31' W 001°39'5 9.5
2017-Aug-07 04:00N 57°36' W 001°42'  
Track history (hours):
 
Tides and Currents Weather Stations Pressure Air Temp Water Temp Dewpoint Dewpoint Depression Visibility Wind Speed Wind Dir Waves Ship Positions

Saga Sapphire

Last reported at 2017-Aug-17 00:58 UTC. Time now 2017-Aug-17 01:55 UTC.
Position N 50°30' E 000°55'.

Length 200 m; draft 8.5 m.

Type: Ship. MMSI: 256208000.

Date/timePositionNaut miles runAvg speedWind from/ knotsBaromVisibWave heightAir tempDewpointWater temp
2017-Aug-17 00:58N 50°30' E 000°55'4 8.5
2017-Aug-17 00:28N 50°29' E 000°48'4 8.3
2017-Aug-17 00:00N 50°28' E 000°43'9 7.0
2017-Aug-16 22:43N 50°26' E 000°29'3 6.6
2017-Aug-16 22:18N 50°25' E 000°25'2 6.6
2017-Aug-16 21:59N 50°24' E 000°21'3 6.6
2017-Aug-16 21:30N 50°23' E 000°17'3 6.5
2017-Aug-16 20:58N 50°22' E 000°12'3 6.6
2017-Aug-16 20:31N 50°22' E 000°07'3 6.7
2017-Aug-16 20:00N 50°21' E 000°02'3 6.8
2017-Aug-16 19:30N 50°20' W 000°03'3 7.0
2017-Aug-16 19:01N 50°19' W 000°09'4 7.1
2017-Aug-16 18:31N 50°18' W 000°14'4 7.3
2017-Aug-16 18:01N 50°17' W 000°19'4 7.7
2017-Aug-16 17:31N 50°16' W 000°25'4 8.2
2017-Aug-16 17:01N 50°15' W 000°31'4 8.6
2017-Aug-16 16:30N 50°14' W 000°38'510.6
2017-Aug-16 16:00N 50°13' W 000°46'611.6
2017-Aug-16 15:30N 50°11' W 000°55'612.0
2017-Aug-16 15:00N 50°10' W 001°04'612.3
2017-Aug-16 14:30N 50°08' W 001°13'612.4
2017-Aug-16 14:01N 50°07' W 001°23'612.4
2017-Aug-16 13:30N 50°06' W 001°32'612.3
2017-Aug-16 13:01N 50°04' W 001°41'612.0
2017-Aug-16 12:30N 50°02' W 001°50'611.5
2017-Aug-16 12:00N 50°00' W 001°59'610.9
2017-Aug-16 11:28N 49°58' W 002°07'510.3
2017-Aug-16 11:00N 49°56' W 002°14'5 9.8
2017-Aug-16 10:30N 49°54' W 002°21'5 9.4
2017-Aug-16 10:00N 49°52' W 002°27'5 9.1
2017-Aug-16 09:29N 49°51' W 002°34'4 8.7
2017-Aug-16 09:00N 49°49' W 002°40'5 9.9
2017-Aug-16 08:30N 49°48' W 002°48'1115.0
2017-Aug-16 07:47N 49°43' W 003°03'1015.3
2017-Aug-16 07:09N 49°38' W 003°15'214.7
2017-Aug-16 07:00N 49°37' W 003°18'3311.7
2017-Aug-16 04:13N 49°17' W 003°58'1711.8
2017-Aug-16 02:49N 49°07' W 004°18'1512.0
2017-Aug-16 01:36N 48°59' W 004°36'112.1
2017-Aug-16 01:30N 48°58' W 004°38'612.1
2017-Aug-16 01:00N 48°54' W 004°45'612.4
2017-Aug-16 00:30N 48°50' W 004°52'612.4
2017-Aug-16 00:00N 48°46' W 004°59'713.1
2017-Aug-15 23:30N 48°42' W 005°07'713.0
2017-Aug-15 23:00N 48°38' W 005°15'713.1
2017-Aug-15 22:30N 48°33' W 005°21'611.4
2017-Aug-15 22:00N 48°28' W 005°24'712.9
2017-Aug-15 21:30N 48°22' W 005°19'612.7
2017-Aug-15 21:00N 48°17' W 005°12'611.9
2017-Aug-15 20:31N 48°16' W 005°04'612.2
2017-Aug-15 20:00N 48°16' W 004°55'612.0
2017-Aug-15 19:31N 48°17' W 004°46'611.2
2017-Aug-15 19:01N 48°19' W 004°38'4 8.7
2017-Aug-15 18:31N 48°21' W 004°32'4 7.4
2017-Aug-15 18:00N 48°23' W 004°27'0 0.0
2017-Aug-15 17:30N 48°23' W 004°27'0 0.0
2017-Aug-15 16:59N 48°23' W 004°27'0 0.0
2017-Aug-15 16:29N 48°23' W 004°27'0 0.0
2017-Aug-15 15:59N 48°23' W 004°27'0 0.0
2017-Aug-15 15:29N 48°23' W 004°27'0 0.0
2017-Aug-15 14:59N 48°23' W 004°27'0 0.0
2017-Aug-15 14:29N 48°23' W 004°27'0 0.0
2017-Aug-15 13:59N 48°23' W 004°27'0 0.0
2017-Aug-15 13:28N 48°23' W 004°27'0 0.0
2017-Aug-15 12:58N 48°23' W 004°27'0 0.0
2017-Aug-15 12:30N 48°23' W 004°27'0 0.0
2017-Aug-15 12:00N 48°23' W 004°27'0 0.0
2017-Aug-15 11:29N 48°23' W 004°27'0 0.0
2017-Aug-15 10:58N 48°23' W 004°27'0 0.0
2017-Aug-15 10:29N 48°23' W 004°27'0 0.0
2017-Aug-15 09:59N 48°23' W 004°27'0 0.0
2017-Aug-15 09:28N 48°23' W 004°27'0 0.0
2017-Aug-15 08:58N 48°23' W 004°27'0 0.0
2017-Aug-15 08:28N 48°23' W 004°27'0 0.0
2017-Aug-15 07:58N 48°23' W 004°27'0 0.0
2017-Aug-15 07:30N 48°23' W 004°27'0 0.0
2017-Aug-15 07:00N 48°23' W 004°27'0 0.0
2017-Aug-15 06:31N 48°23' W 004°27'1 1.1
2017-Aug-15 06:01N 48°23' W 004°28'4 8.3
2017-Aug-15 05:30N 48°21' W 004°33'611.3
2017-Aug-15 05:00N 48°18' W 004°41'4 8.9
2017-Aug-15 04:30N 48°17' W 004°47'611.0
2017-Aug-15 04:00N 48°16' W 004°55'612.8
2017-Aug-15 03:30N 48°15' W 005°05'712.7
2017-Aug-15 02:55N 48°19' W 005°15'1114.1
2017-Aug-15 02:09N 48°28' W 005°24'314.1
2017-Aug-15 01:58N 48°30' W 005°25'715.0
2017-Aug-15 01:30N 48°35' W 005°18'715.0
2017-Aug-15 01:00N 48°41' W 005°10'815.3
2017-Aug-15 00:30N 48°45' W 005°01'1815.3
2017-Aug-14 23:19N 48°58' W 004°41'2414.1
2017-Aug-14 21:35N 49°15' W 004°14'113.7
2017-Aug-14 21:30N 49°15' W 004°12'713.8
2017-Aug-14 21:00N 49°20' W 004°05'713.3
2017-Aug-14 20:30N 49°25' W 003°58'714.1
2017-Aug-14 20:00N 49°29' W 003°49'714.7
2017-Aug-14 19:30N 49°34' W 003°41'815.3
2017-Aug-14 19:00N 49°39' W 003°32'815.9
2017-Aug-14 18:30N 49°44' W 003°23'816.3
2017-Aug-14 18:01N 49°49' W 003°13'816.5
2017-Aug-14 17:30N 49°55' W 003°04'816.3
2017-Aug-14 17:01N 49°59' W 002°52'816.6
2017-Aug-14 16:31N 50°01' W 002°40'816.2
2017-Aug-14 16:00N 50°03' W 002°28'714.4
2017-Aug-14 15:31N 50°02' W 002°17'714.9
2017-Aug-14 15:00N 49°58' W 002°07'714.3
2017-Aug-14 14:30N 49°53' W 001°59'713.8
2017-Aug-14 14:00N 49°49' W 001°51'612.9
2017-Aug-14 13:30N 49°44' W 001°44'510.1
2017-Aug-14 13:00N 49°40' W 001°39'2 3.4
2017-Aug-14 12:28N 49°39' W 001°37'0 0.0
2017-Aug-14 11:58N 49°39' W 001°37'0 0.0
2017-Aug-14 11:28N 49°39' W 001°37'0 0.0
2017-Aug-14 10:58N 49°39' W 001°37'0 0.0
2017-Aug-14 10:28N 49°39' W 001°37'0 0.0
2017-Aug-14 09:58N 49°39' W 001°37'0 0.0
2017-Aug-14 09:28N 49°39' W 001°37'0 0.0
2017-Aug-14 08:58N 49°39' W 001°37'0 0.0
2017-Aug-14 08:28N 49°39' W 001°37'0 0.0
2017-Aug-14 07:58N 49°39' W 001°37'0 0.0
2017-Aug-14 07:28N 49°39' W 001°37'0 0.0
2017-Aug-14 06:58N 49°39' W 001°37'0 0.0
2017-Aug-14 06:28N 49°39' W 001°37'0 0.0
2017-Aug-14 05:58N 49°39' W 001°37'0 0.7
2017-Aug-14 05:31N 49°39' W 001°37'2 4.5
2017-Aug-14 05:00N 49°41' W 001°40'4 8.2
2017-Aug-14 04:30N 49°44' W 001°43'3 5.5
2017-Aug-14 04:00N 49°46' W 001°46'3 7.0
2017-Aug-14 03:30N 49°48' W 001°50'4 8.3
2017-Aug-14 03:00N 49°53' W 001°50'4 7.6
2017-Aug-14 02:30N 49°54' W 001°56'5 9.8
2017-Aug-14 02:00N 49°53' W 002°04'1110.7
2017-Aug-14 00:58N 49°53' W 002°21'610.8
2017-Aug-14 00:24N 49°51' W 002°30'511.8
2017-Aug-14 00:00N 49°50' W 002°37'611.6
2017-Aug-13 23:27N 49°49' W 002°47'511.5
2017-Aug-13 23:00N 49°47' W 002°54'611.3
2017-Aug-13 22:30N 49°45' W 003°02'611.3
2017-Aug-13 22:00N 49°42' W 003°10'610.8
2017-Aug-13 21:30N 49°38' W 003°16'5 9.8
2017-Aug-13 21:00N 49°33' W 003°14'5 9.6
2017-Aug-13 20:30N 49°29' W 003°12'10 9.6
2017-Aug-13 19:29N 49°25' W 002°58'510.7
2017-Aug-13 19:00N 49°23' W 002°50'14 9.5
2017-Aug-13 17:31N 49°27' W 002°29'0 9.3
2017-Aug-13 17:30N 49°27' W 002°29'1 1.3
2017-Aug-13 16:30N 49°28' W 002°31'0 0.0
2017-Aug-13 14:10N 49°28' W 002°31'0 0.1
2017-Aug-13 14:00N 49°28' W 002°31'0 0.0
2017-Aug-13 13:27N 49°28' W 002°31'0 0.0
2017-Aug-13 12:59N 49°28' W 002°31'0 0.1
2017-Aug-13 06:39N 49°28' W 002°30'1 3.9
2017-Aug-13 06:30N 49°27' W 002°30'3 6.4
2017-Aug-13 05:59N 49°24' W 002°28'4 7.9
2017-Aug-13 05:26N 49°23' W 002°22'511.3
2017-Aug-13 04:59N 49°25' W 002°15'1613.4
2017-Aug-13 03:48N 49°40' W 002°06'816.2
2017-Aug-13 03:18N 49°48' W 002°03'415.6
2017-Aug-13 03:00N 49°50' W 001°57'714.9
2017-Aug-13 02:31N 49°53' W 001°46'714.3
2017-Aug-13 02:00N 49°56' W 001°36'714.0
2017-Aug-13 01:30N 50°00' W 001°28'713.0
2017-Aug-13 01:00N 50°04' W 001°20'612.7
2017-Aug-13 00:30N 50°07' W 001°11'612.1
2017-Aug-13 00:00N 50°10' W 001°03'2211.9
2017-Aug-12 22:07N 50°20' W 000°31'112.6
2017-Aug-12 22:01N 50°21' W 000°29'713.1
2017-Aug-12 21:30N 50°24' W 000°20'713.9
2017-Aug-12 20:58N 50°28' W 000°10'714.5
2017-Aug-12 20:31N 50°30' W 000°00'815.1
2017-Aug-12 20:01N 50°32' E 000°11'815.6
2017-Aug-12 19:31N 50°34' E 000°23'815.8
2017-Aug-12 19:01N 50°36' E 000°35'815.4
2017-Aug-12 18:31N 50°41' E 000°45'815.1
2017-Aug-12 18:01N 50°45' E 000°54'714.5
2017-Aug-12 17:31N 50°49' E 001°04'713.8
2017-Aug-12 17:00N 50°55' E 001°11'612.6
2017-Aug-12 16:30N 50°60' E 001°16'510.5
2017-Aug-12 15:59N 51°04' E 001°21'3 5.1
2017-Aug-12 15:29N 51°07' E 001°20'0 0.3
2017-Aug-12 14:18N 51°07' E 001°19'0 0.0
2017-Aug-12 12:55N 51°07' E 001°19'0 0.0
2017-Aug-12 11:11N 51°07' E 001°19'0 0.0
2017-Aug-12 10:47N 51°07' E 001°19'0 0.0
2017-Aug-12 10:30N 51°07' E 001°19'0 0.0
2017-Aug-12 09:44N 51°07' E 001°19'0 0.0
2017-Aug-12 09:22N 51°07' E 001°19'0 0.0
2017-Aug-12 08:58N 51°07' E 001°19'0 0.0
2017-Aug-12 08:28N 51°07' E 001°19'0 0.0
2017-Aug-12 07:46N 51°07' E 001°19'0 0.0
2017-Aug-12 07:21N 51°07' E 001°19'0 0.0
2017-Aug-12 06:56N 51°07' E 001°19'1 1.3
2017-Aug-12 06:26N 51°07' E 001°20'3 8.1
2017-Aug-12 06:00N 51°07' E 001°25'4 8.0
2017-Aug-12 05:31N 51°08' E 001°32'510.8
2017-Aug-12 05:01N 51°11' E 001°38'611.2
2017-Aug-12 04:31N 51°14' E 001°46'611.8
2017-Aug-12 04:01N 51°20' E 001°49'612.3
2017-Aug-12 03:31N 51°25' E 001°54'612.8
2017-Aug-12 03:00N 51°30' E 002°01'713.3
2017-Aug-12 02:31N 51°35' E 002°08'713.7
2017-Aug-12 02:00N 51°40' E 002°16'1313.9
2017-Aug-12 01:02N 51°50' E 002°30'114.0
2017-Aug-12 00:59N 51°51' E 002°30'6315.9
2017-Aug-11 21:00N 52°54' E 002°36'28 7.5 230 / 121014.310.8 17.015.3
2017-Aug-11 17:19N 53°21' E 002°24'8 9.4
2017-Aug-11 16:27N 53°26' E 002°14'66 8.8
2017-Aug-11 09:00N 54°12' E 000°54'1116.2 230 / 201016.427.0 17.010.516.0
2017-Aug-11 08:19N 54°22' E 000°46'310.7
2017-Aug-11 08:00N 54°24' E 000°42'510.7
2017-Aug-11 07:30N 54°28' E 000°36'510.8
2017-Aug-11 07:00N 54°32' E 000°29'511.0
2017-Aug-11 06:30N 54°36' E 000°23'511.0
2017-Aug-11 06:00N 54°39' E 000°15'510.9
2017-Aug-11 05:30N 54°43' E 000°08'510.9
2017-Aug-11 05:00N 54°47' E 000°02'510.8
2017-Aug-11 04:30N 54°51' W 000°05'910.6
2017-Aug-11 03:39N 54°58' W 000°15'210.4
2017-Aug-11 03:25N 54°60' W 000°18'410.3
2017-Aug-11 03:00N 55°03' W 000°23'510.1
2017-Aug-11 02:30N 55°07' W 000°29'5 9.9
2017-Aug-11 02:01N 55°10' W 000°34'5 9.8
2017-Aug-11 01:30N 55°14' W 000°40'5 9.7
2017-Aug-11 01:00N 55°17' W 000°46'5 9.7
2017-Aug-11 00:30N 55°21' W 000°52'5 9.5
2017-Aug-11 00:00N 55°24' W 000°58'5 9.4
2017-Aug-10 23:30N 55°28' W 001°03'5 9.2
2017-Aug-10 23:00N 55°31' W 001°08'4 8.8
2017-Aug-10 22:30N 55°35' W 001°13'4 8.8
2017-Aug-10 22:00N 55°38' W 001°18'4 9.0
2017-Aug-10 21:30N 55°42' W 001°23'5 9.3
2017-Aug-10 20:58N 55°45' W 001°30'4 9.6
2017-Aug-10 20:30N 55°48' W 001°36'5 9.7
2017-Aug-10 20:00N 55°51' W 001°42'5 9.9
2017-Aug-10 19:30N 55°55' W 001°48'5 9.7
2017-Aug-10 19:00N 55°58' W 001°54'510.0
2017-Aug-10 18:30N 56°02' W 002°00'510.3
2017-Aug-10 18:00N 56°05' W 002°07'510.3
2017-Aug-10 17:30N 56°06' W 002°16'510.3
2017-Aug-10 17:00N 56°06' W 002°25'5 9.9
2017-Aug-10 16:30N 56°06' W 002°34'5 9.9
2017-Aug-10 16:00N 56°06' W 002°43'5 9.6
2017-Aug-10 15:30N 56°05' W 002°52'5 9.2
2017-Aug-10 15:00N 56°03' W 002°59'5 9.7
2017-Aug-10 14:30N 56°01' W 003°07'3 5.6
2017-Aug-10 14:01N 55°59' W 003°11'0 0.3
2017-Aug-10 13:30N 55°59' W 003°11'0 0.4
2017-Aug-10 13:00N 55°59' W 003°11'0 0.6
2017-Aug-10 12:28N 55°59' W 003°11'0 0.0
2017-Aug-10 11:58N 55°59' W 003°11'0 0.0
2017-Aug-10 11:28N 55°59' W 003°11'0 0.0
2017-Aug-10 10:58N 55°59' W 003°11'0 0.0
2017-Aug-10 10:28N 55°59' W 003°11'0 0.0
2017-Aug-10 09:58N 55°59' W 003°11'0 0.0
2017-Aug-10 09:28N 55°59' W 003°11'0 0.0
2017-Aug-10 08:58N 55°59' W 003°11'0 0.0
2017-Aug-10 08:28N 55°59' W 003°11'0 0.0
2017-Aug-10 07:58N 55°59' W 003°11'0 0.0
2017-Aug-10 07:28N 55°59' W 003°11'0 0.0
2017-Aug-10 06:58N 55°59' W 003°11'0 0.0
2017-Aug-10 06:28N 55°59' W 003°11'0 0.0
2017-Aug-10 05:58N 55°59' W 003°11'0 0.0
2017-Aug-10 05:28N 55°59' W 003°11'0 0.0
2017-Aug-10 04:58N 55°59' W 003°11'0 0.0
2017-Aug-10 04:28N 55°59' W 003°11'0 0.0
2017-Aug-10 03:58N 55°59' W 003°11'0 0.0
2017-Aug-10 03:28N 55°59' W 003°11'0 0.0
2017-Aug-10 02:58N 55°59' W 003°11'0 0.0
2017-Aug-10 02:28N 55°59' W 003°11'0 0.0
2017-Aug-10 01:58N 55°59' W 003°11'0 0.0
2017-Aug-10 01:28N 55°59' W 003°11'0 0.0
2017-Aug-10 00:58N 55°59' W 003°11'0 0.0
2017-Aug-10 00:28N 55°59' W 003°11'0 0.0
2017-Aug-09 23:58N 55°59' W 003°11'0 0.0
2017-Aug-09 23:28N 55°59' W 003°11'0 0.0
2017-Aug-09 22:58N 55°59' W 003°11'0 0.0
2017-Aug-09 22:28N 55°59' W 003°11'0 0.0
2017-Aug-09 21:58N 55°59' W 003°11'0 0.0
2017-Aug-09 21:28N 55°59' W 003°11'0 0.0
2017-Aug-09 20:58N 55°59' W 003°11'0 0.0
2017-Aug-09 20:28N 55°59' W 003°11'0 0.0
2017-Aug-09 19:58N 55°59' W 003°11'0 0.0
2017-Aug-09 19:28N 55°59' W 003°11'0 0.0
2017-Aug-09 18:58N 55°59' W 003°11'0 0.0
2017-Aug-09 18:28N 55°59' W 003°11'0 0.0
2017-Aug-09 17:58N 55°59' W 003°11'0 0.0
2017-Aug-09 17:28N 55°59' W 003°11'0 0.0
2017-Aug-09 16:58N 55°59' W 003°11'0 0.0
2017-Aug-09 16:28N 55°59' W 003°11'0 0.0
2017-Aug-09 15:58N 55°59' W 003°11'0 0.0
2017-Aug-09 15:28N 55°59' W 003°11'0 0.0
2017-Aug-09 14:58N 55°59' W 003°11'0 0.0
2017-Aug-09 14:28N 55°59' W 003°11'0 0.0
2017-Aug-09 13:58N 55°59' W 003°11'0 0.0
2017-Aug-09 13:28N 55°59' W 003°11'0 0.0
2017-Aug-09 12:58N 55°59' W 003°11'0 0.0
2017-Aug-09 12:28N 55°59' W 003°11'0 0.0
2017-Aug-09 11:58N 55°59' W 003°11'0 0.0
2017-Aug-09 11:28N 55°59' W 003°11'0 0.0
2017-Aug-09 10:58N 55°59' W 003°11'0 0.0
2017-Aug-09 10:28N 55°59' W 003°11'0 0.0
2017-Aug-09 09:58N 55°59' W 003°11'0 0.0
2017-Aug-09 09:28N 55°59' W 003°11'0 0.0
2017-Aug-09 08:58N 55°59' W 003°11'0 0.0
2017-Aug-09 08:28N 55°59' W 003°11'0 0.0
2017-Aug-09 07:58N 55°59' W 003°11'0 0.0
2017-Aug-09 07:28N 55°59' W 003°11'0 0.0
2017-Aug-09 06:58N 55°59' W 003°11'0 0.0
2017-Aug-09 06:28N 55°59' W 003°11'0 0.0
2017-Aug-09 05:58N 55°59' W 003°11'0 0.0
2017-Aug-09 05:28N 55°59' W 003°11'0 0.0
2017-Aug-09 04:58N 55°59' W 003°11'0 0.0
2017-Aug-09 04:28N 55°59' W 003°11'0 0.0
2017-Aug-09 03:58N 55°59' W 003°11'0 0.0
2017-Aug-09 03:28N 55°59' W 003°11'0 0.0
2017-Aug-09 03:01N 55°59' W 003°11'0 0.7
2017-Aug-09 02:30N 55°59' W 003°11'0 0.1
2017-Aug-09 02:01N 55°59' W 003°11'1 1.3
2017-Aug-09 01:31N 55°60' W 003°11'3 5.6
2017-Aug-09 01:01N 56°01' W 003°07'5 9.4
2017-Aug-09 00:30N 56°03' W 002°60'4 9.0
2017-Aug-09 00:01N 56°07' W 002°54'611.2
2017-Aug-08 23:31N 56°08' W 002°44'612.7
2017-Aug-08 23:01N 56°08' W 002°33'612.4
2017-Aug-08 22:31N 56°09' W 002°22'612.4
2017-Aug-08 22:01N 56°10' W 002°11'510.7
2017-Aug-08 21:31N 56°10' W 002°01'5 9.2
2017-Aug-08 21:01N 56°14' W 001°59'5 9.1
2017-Aug-08 20:31N 56°19' W 001°56'4 8.9
2017-Aug-08 20:00N 56°23' W 001°57'4 8.8
2017-Aug-08 19:30N 56°27' W 001°58'5 9.1
2017-Aug-08 19:00N 56°29' W 002°06'5 9.1
2017-Aug-08 18:30N 56°30' W 002°14'5 9.3
2017-Aug-08 18:00N 56°30' W 002°22'5 9.2
2017-Aug-08 17:30N 56°29' W 002°30'4 8.2
2017-Aug-08 17:00N 56°28' W 002°37'5 9.1
2017-Aug-08 16:30N 56°27' W 002°46'5 8.8
2017-Aug-08 15:54N 56°28' W 002°55'1 0.7
2017-Aug-08 14:28N 56°28' W 002°57'0 0.0
2017-Aug-08 13:37N 56°28' W 002°57'0 0.0
2017-Aug-08 13:07N 56°28' W 002°57'0 0.0
2017-Aug-08 12:52N 56°28' W 002°57'0 0.0
2017-Aug-08 10:46N 56°28' W 002°57'0 0.0
2017-Aug-08 10:25N 56°28' W 002°57'0 0.0
2017-Aug-08 09:55N 56°28' W 002°57'0 0.0
2017-Aug-08 09:28N 56°28' W 002°57'0 0.0
2017-Aug-08 08:58N 56°28' W 002°57'0 0.0
2017-Aug-08 06:10N 56°28' W 002°57'0 0.0
2017-Aug-08 05:49N 56°28' W 002°57'0 0.0
2017-Aug-08 05:25N 56°28' W 002°57'0 0.0
2017-Aug-08 04:55N 56°28' W 002°57'0 0.0
2017-Aug-08 04:28N 56°28' W 002°57'0 0.0
2017-Aug-08 03:58N 56°28' W 002°57'0 0.0
2017-Aug-08 03:28N 56°28' W 002°57'0 0.2
2017-Aug-08 03:00N 56°28' W 002°57'3 3.9
2017-Aug-08 02:20N 56°27' W 002°52'410.7
2017-Aug-08 02:00N 56°27' W 002°46'5 9.8
2017-Aug-08 01:30N 56°28' W 002°37'5 9.1
2017-Aug-08 01:00N 56°30' W 002°29'612.0
2017-Aug-08 00:31N 56°32' W 002°19'612.7
2017-Aug-08 00:00N 56°34' W 002°09'713.3
2017-Aug-07 23:30N 56°38' W 001°58'611.1
2017-Aug-07 23:00N 56°42' W 001°51'9 9.7
2017-Aug-07 22:06N 56°50' W 001°46'1 9.6
2017-Aug-07 22:00N 56°51' W 001°46'5 9.4
2017-Aug-07 21:25N 56°56' W 001°42'4 9.7
2017-Aug-07 20:58N 57°00' W 001°39'5 9.4
2017-Aug-07 20:24N 57°05' W 001°36'4 9.2
2017-Aug-07 20:00N 57°09' W 001°34'4 8.8
2017-Aug-07 19:30N 57°13' W 001°31'12 7.4
2017-Aug-07 17:56N 57°24' W 001°35'4 8.6
2017-Aug-07 17:30N 57°27' W 001°40'4 7.4
2017-Aug-07 17:00N 57°30' W 001°45'1 1.5
2017-Aug-07 16:29N 57°30' W 001°46'0 0.0
2017-Aug-07 15:59N 57°30' W 001°46'0 0.0
2017-Aug-07 15:29N 57°30' W 001°46'0 0.0
2017-Aug-07 14:59N 57°30' W 001°46'0 0.0
2017-Aug-07 14:29N 57°30' W 001°46'0 0.0
2017-Aug-07 13:59N 57°30' W 001°46'0 0.0
2017-Aug-07 13:29N 57°30' W 001°46'0 0.0
2017-Aug-07 12:59N 57°30' W 001°46'0 0.0
2017-Aug-07 12:29N 57°30' W 001°46'0 0.0
2017-Aug-07 11:59N 57°30' W 001°46'0 0.0
2017-Aug-07 11:29N 57°30' W 001°46'0 0.0
2017-Aug-07 10:59N 57°30' W 001°46'0 0.0
2017-Aug-07 10:29N 57°30' W 001°46'0 0.0
2017-Aug-07 09:59N 57°30' W 001°46'0 0.0
2017-Aug-07 09:26N 57°30' W 001°46'0 0.0
2017-Aug-07 08:59N 57°30' W 001°46'0 0.0
2017-Aug-07 08:29N 57°30' W 001°46'0 0.0
2017-Aug-07 07:59N 57°30' W 001°46'0 0.0
2017-Aug-07 07:29N 57°30' W 001°46'0 0.0
2017-Aug-07 06:59N 57°30' W 001°46'0 0.0
2017-Aug-07 06:29N 57°30' W 001°46'0 0.0
2017-Aug-07 05:59N 57°30' W 001°46'0 0.3
2017-Aug-07 05:30N 57°30' W 001°46'3 6.4
2017-Aug-07 05:01N 57°28' W 001°41'3 6.6
2017-Aug-07 04:31N 57°31' W 001°39'5 9.5
2017-Aug-07 04:00N 57°36' W 001°42'  

Dump ship's entire track history